createdAt,value
2018-09-08T00:02:11.892Z,99.90
2018-09-08T00:04:39.703Z,99.90
2018-09-08T00:07:13.119Z,99.90
2018-09-08T00:09:40.879Z,99.90
2018-09-08T00:12:08.592Z,99.90
2018-09-08T00:14:35.699Z,99.90
2018-09-08T00:17:09.180Z,99.90
2018-09-08T00:19:42.708Z,99.90
2018-09-08T00:22:15.916Z,99.90
2018-09-08T00:24:49.173Z,99.90
2018-09-08T00:27:21.152Z,99.90
2018-09-08T00:29:50.224Z,99.90
2018-09-08T00:32:19.228Z,99.90
2018-09-08T00:34:46.939Z,99.90
2018-09-08T00:37:14.644Z,99.90
2018-09-08T00:39:43.127Z,99.90
2018-09-08T00:42:11.000Z,99.90
2018-09-08T00:44:38.719Z,99.90
2018-09-08T00:47:06.474Z,99.90
2018-09-08T00:49:34.194Z,99.90
2018-09-08T00:52:01.938Z,99.90
2018-09-08T00:54:30.628Z,99.90
2018-09-08T00:59:50.526Z,99.90
2018-09-08T01:02:18.223Z,99.90
2018-09-08T01:04:46.011Z,99.90
2018-09-08T01:07:19.181Z,99.90
2018-09-08T01:09:46.599Z,99.90
2018-09-08T01:12:14.036Z,99.90
2018-09-08T01:14:41.435Z,99.90
2018-09-08T01:17:08.839Z,99.90
2018-09-08T01:19:36.234Z,99.90
2018-09-08T01:22:03.647Z,99.90
2018-09-08T01:24:31.044Z,99.90
2018-09-08T01:26:58.494Z,99.90
2018-09-08T01:29:25.914Z,99.90
2018-09-08T01:31:53.347Z,99.90
2018-09-08T01:34:20.750Z,99.90
2018-09-08T01:36:48.158Z,99.90
2018-09-08T01:39:19.255Z,99.90
2018-09-08T01:41:46.690Z,99.90
2018-09-08T01:44:17.291Z,99.90
2018-09-08T01:46:44.694Z,99.90
2018-09-08T01:49:12.127Z,99.90
2018-09-08T01:51:39.539Z,99.90
2018-09-08T01:54:07.220Z,99.90
2018-09-08T01:56:34.639Z,99.90
2018-09-08T01:59:02.110Z,99.90
2018-09-08T02:01:29.531Z,99.90
2018-09-08T02:03:56.975Z,99.90
2018-09-08T02:06:24.422Z,99.90
2018-09-08T02:08:51.822Z,99.90
2018-09-08T02:11:19.239Z,99.90
2018-09-08T02:13:46.666Z,99.90
2018-09-08T02:18:22.350Z,99.90
2018-09-08T02:20:49.766Z,99.90
2018-09-08T02:23:17.155Z,99.90
2018-09-08T02:25:44.567Z,99.90
2018-09-08T02:28:12.003Z,99.90
2018-09-08T02:30:39.450Z,99.90
2018-09-08T02:33:06.847Z,99.90
2018-09-08T02:35:34.243Z,99.90
2018-09-08T02:38:01.636Z,99.90
2018-09-08T02:40:29.047Z,99.90
2018-09-08T02:42:56.444Z,99.90
2018-09-08T02:45:23.842Z,99.90
2018-09-08T02:47:51.239Z,99.90
2018-09-08T02:50:38.199Z,99.90
2018-09-08T02:53:05.655Z,99.90
2018-09-08T02:55:32.798Z,99.90
2018-09-08T02:57:59.475Z,99.90
2018-09-08T03:00:27.439Z,99.90
2018-09-08T03:02:54.090Z,99.90
2018-09-08T03:05:20.654Z,99.90
2018-09-08T03:07:47.286Z,99.90
2018-09-08T03:10:14.136Z,99.90
2018-09-08T03:12:40.566Z,99.90
2018-09-08T03:15:06.978Z,99.90
2018-09-08T03:17:33.386Z,99.90
2018-09-08T03:19:59.839Z,99.90
2018-09-08T03:22:26.223Z,99.90
2018-09-08T03:24:52.658Z,99.90
2018-09-08T03:27:19.064Z,99.90
2018-09-08T03:29:45.523Z,99.90
2018-09-08T03:32:15.298Z,99.90
2018-09-08T03:34:41.714Z,99.90
2018-09-08T03:37:08.307Z,99.90
2018-09-08T03:39:34.762Z,99.90
2018-09-08T03:42:01.227Z,99.90
2018-09-08T03:44:27.655Z,99.90
2018-09-08T03:46:56.094Z,99.90
2018-09-08T03:49:22.474Z,99.90
2018-09-08T03:51:48.872Z,99.90
2018-09-08T03:54:15.291Z,99.90
2018-09-08T03:56:41.671Z,99.90
2018-09-08T03:59:08.172Z,99.90
2018-09-08T04:01:34.521Z,99.90
2018-09-08T04:04:02.935Z,99.90
2018-09-08T04:06:30.330Z,99.90
2018-09-08T04:08:57.775Z,99.90
2018-09-08T04:11:25.279Z,99.90
2018-09-08T04:13:52.766Z,99.90
2018-09-08T04:16:23.568Z,99.90
2018-09-08T04:18:50.955Z,99.90
2018-09-08T04:21:18.398Z,99.90
2018-09-08T04:23:45.828Z,99.90
2018-09-08T04:26:13.239Z,99.90
2018-09-08T04:28:40.699Z,99.90
2018-09-08T04:31:08.102Z,99.90
2018-09-08T04:33:35.547Z,99.90
2018-09-08T04:36:03.267Z,99.90
2018-09-08T04:38:30.678Z,99.90
2018-09-08T04:40:58.180Z,99.90
2018-09-08T04:43:25.539Z,99.90
2018-09-08T04:45:53.350Z,99.90
2018-09-08T04:48:20.790Z,99.90
2018-09-08T04:50:48.243Z,99.90
2018-09-08T04:53:15.630Z,99.90
2018-09-08T04:55:43.030Z,99.90
2018-09-08T04:58:10.454Z,99.90
2018-09-08T05:00:37.848Z,99.90
2018-09-08T05:03:05.323Z,99.90
2018-09-08T05:05:33.739Z,99.90
2018-09-08T05:08:01.147Z,99.90
2018-09-08T05:10:28.551Z,99.90
2018-09-08T05:12:55.975Z,99.90
2018-09-08T05:15:23.359Z,99.90
2018-09-08T05:17:50.797Z,99.90
2018-09-08T05:20:18.203Z,99.90
2018-09-08T05:22:45.614Z,99.90
2018-09-08T05:25:13.039Z,99.90
2018-09-08T05:27:40.432Z,99.90
2018-09-08T05:30:11.427Z,99.90
2018-09-08T05:32:38.871Z,99.90
2018-09-08T05:35:06.746Z,99.90
2018-09-08T05:37:34.157Z,99.90
2018-09-08T05:40:01.569Z,99.90
2018-09-08T05:42:29.002Z,99.90
2018-09-08T05:44:56.431Z,99.90
2018-09-08T05:47:23.866Z,99.90
2018-09-08T05:49:51.275Z,99.90
2018-09-08T05:52:18.699Z,99.90
2018-09-08T05:54:46.131Z,99.90
2018-09-08T05:57:13.543Z,99.90
2018-09-08T05:59:40.964Z,99.90
2018-09-08T06:02:08.395Z,99.90
2018-09-08T06:04:35.829Z,99.90
2018-09-08T06:07:04.135Z,99.90
2018-09-08T06:09:32.515Z,99.90
2018-09-08T06:12:00.205Z,99.90
2018-09-08T06:14:28.173Z,99.90
2018-09-08T06:16:55.652Z,99.90
2018-09-08T06:19:23.071Z,99.90
2018-09-08T06:21:50.466Z,99.90
2018-09-08T06:24:17.968Z,99.90
2018-09-08T06:26:45.635Z,99.90
2018-09-08T06:29:13.040Z,99.90
2018-09-08T06:31:40.470Z,99.90
2018-09-08T06:34:07.843Z,99.90
2018-09-08T06:36:35.509Z,99.90
2018-09-08T06:39:03.343Z,99.90
2018-09-08T06:41:30.747Z,99.90
2018-09-08T06:43:58.156Z,99.90
2018-09-08T06:46:25.567Z,99.90
2018-09-08T06:48:52.987Z,99.90
2018-09-08T06:51:20.371Z,99.90
2018-09-08T06:53:47.778Z,99.90
2018-09-08T06:56:15.207Z,99.90
2018-09-08T06:58:42.616Z,99.90
2018-09-08T07:01:10.011Z,99.90
2018-09-08T07:03:37.415Z,99.90
2018-09-08T07:06:04.886Z,99.90
2018-09-08T07:08:32.275Z,99.90
2018-09-08T07:10:59.706Z,99.90
2018-09-08T07:13:27.115Z,99.90
2018-09-08T07:15:54.543Z,99.90
2018-09-08T07:18:21.986Z,99.90
2018-09-08T07:20:49.411Z,99.90
2018-09-08T07:23:16.791Z,99.90
2018-09-08T07:25:44.207Z,99.90
2018-09-08T07:28:11.627Z,99.90
2018-09-08T07:30:39.018Z,99.90
2018-09-08T07:33:06.459Z,99.90
2018-09-08T07:35:33.853Z,99.90
2018-09-08T07:38:01.255Z,99.90
2018-09-08T07:40:28.682Z,99.90
2018-09-08T07:42:56.070Z,99.90
2018-09-08T07:45:23.482Z,99.90
2018-09-08T07:47:50.903Z,99.90
2018-09-08T07:50:18.283Z,99.90
2018-09-08T07:52:45.686Z,99.90
2018-09-08T07:55:13.083Z,99.90
2018-09-08T07:57:40.659Z,99.90
2018-09-08T08:00:08.163Z,99.90
2018-09-08T08:02:35.558Z,99.90
2018-09-08T08:05:02.983Z,99.90
2018-09-08T08:07:30.444Z,99.90
2018-09-08T08:09:57.873Z,99.90
2018-09-08T08:12:25.267Z,99.90
2018-09-08T08:14:52.669Z,99.90
2018-09-08T08:17:20.079Z,99.90
2018-09-08T08:19:47.483Z,99.90
2018-09-08T08:22:14.875Z,99.90
2018-09-08T08:24:42.309Z,99.90
2018-09-08T08:27:09.718Z,99.90
2018-09-08T08:29:37.159Z,99.90
2018-09-08T08:32:04.599Z,99.90
2018-09-08T08:34:32.097Z,99.90
2018-09-08T08:36:59.550Z,99.90
2018-09-08T08:39:26.963Z,99.90
2018-09-08T08:41:54.346Z,99.90
2018-09-08T08:44:21.774Z,99.90
2018-09-08T08:46:49.190Z,99.90
2018-09-08T08:49:16.588Z,99.90
2018-09-08T08:51:55.467Z,99.90
2018-09-08T08:54:29.818Z,99.90
2018-09-08T08:56:57.258Z,99.90
2018-09-08T08:59:24.639Z,99.90
2018-09-08T09:04:44.599Z,99.90
2018-09-08T09:07:12.878Z,99.90
2018-09-08T09:09:41.093Z,99.90
2018-09-08T09:12:08.512Z,99.90
2018-09-08T09:14:36.289Z,99.90
2018-09-08T09:17:03.482Z,99.90
2018-09-08T09:19:42.950Z,99.90
2018-09-08T09:22:24.214Z,99.90
2018-09-08T09:25:12.891Z,99.90
2018-09-08T09:27:42.015Z,99.90
2018-09-08T09:30:09.791Z,99.90
2018-09-08T09:32:37.182Z,99.90
2018-09-08T09:35:05.701Z,99.90
2018-09-08T09:37:33.099Z,99.90
2018-09-08T09:40:00.802Z,99.90
2018-09-08T09:42:28.200Z,99.90
2018-09-08T09:44:55.658Z,99.90
2018-09-08T09:47:23.075Z,99.90
2018-09-08T09:49:50.462Z,99.90
2018-09-08T09:52:17.863Z,99.90
2018-09-08T09:54:45.254Z,99.90
2018-09-08T09:57:12.675Z,99.90
2018-09-08T09:59:40.095Z,99.90
2018-09-08T10:03:11.543Z,99.90
2018-09-08T10:05:38.991Z,99.90
2018-09-08T10:08:06.414Z,99.90
2018-09-08T10:10:33.859Z,99.90
2018-09-08T10:13:01.259Z,99.90
2018-09-08T10:15:28.667Z,99.90
2018-09-08T10:17:56.077Z,99.90
2018-09-08T10:20:23.903Z,99.90
2018-09-08T10:22:51.321Z,99.60
2018-09-08T10:25:19.339Z,99.90
2018-09-08T10:27:47.235Z,97.30
2018-09-08T10:30:15.111Z,98.20
2018-09-08T10:32:43.290Z,99.90
2018-09-08T10:35:10.723Z,97.70
2018-09-08T10:37:38.194Z,98.30
2018-09-08T10:40:06.788Z,99.80
2018-09-08T10:42:34.182Z,97.90
2018-09-08T10:45:01.599Z,96.30
2018-09-08T10:47:28.996Z,95.70
2018-09-08T10:49:56.427Z,97.70
2018-09-08T10:52:34.415Z,96.00
2018-09-08T10:55:01.937Z,95.60
2018-09-08T10:57:29.331Z,96.50
2018-09-08T10:59:57.120Z,94.70
2018-09-08T11:05:15.095Z,95.40
2018-09-08T11:07:42.491Z,92.70
2018-09-08T11:10:09.894Z,93.20
2018-09-08T11:12:37.334Z,95.00
2018-09-08T11:15:05.736Z,94.90
2018-09-08T11:17:33.126Z,95.20
2018-09-08T11:20:00.551Z,94.30
2018-09-08T11:22:27.946Z,95.60
2018-09-08T11:24:55.371Z,93.40
2018-09-08T11:27:22.799Z,92.10
2018-09-08T11:29:50.190Z,92.70
2018-09-08T11:32:17.579Z,93.40
2018-09-08T11:34:44.975Z,91.70
2018-09-08T11:37:12.366Z,92.60
2018-09-08T11:39:39.758Z,91.70
2018-09-08T11:42:07.154Z,90.90
2018-09-08T11:44:34.566Z,88.20
2018-09-08T11:47:01.986Z,88.00
2018-09-08T11:49:29.433Z,89.30
2018-09-08T11:51:56.807Z,89.90
2018-09-08T11:54:24.258Z,89.30
2018-09-08T11:56:51.655Z,91.90
2018-09-08T11:59:19.054Z,90.50
2018-09-08T12:01:50.227Z,85.50
2018-09-08T12:04:17.634Z,90.30
2018-09-08T12:06:45.031Z,90.20
2018-09-08T12:09:12.487Z,88.40
2018-09-08T12:11:39.926Z,84.90
2018-09-08T12:14:07.658Z,83.40
2018-09-08T12:16:35.059Z,80.10
2018-09-08T12:19:02.576Z,80.80
2018-09-08T12:21:29.935Z,82.60
2018-09-08T12:23:57.330Z,86.20
2018-09-08T12:26:24.718Z,82.00
2018-09-08T12:28:52.110Z,82.10
2018-09-08T12:31:19.496Z,79.30
2018-09-08T12:33:46.879Z,77.10
2018-09-08T12:36:14.286Z,76.40
2018-09-08T12:38:41.734Z,74.30
2018-09-08T12:41:09.059Z,77.00
2018-09-08T12:43:36.503Z,77.40
2018-09-08T12:46:03.923Z,70.90
2018-09-08T12:48:34.506Z,72.50
2018-09-08T12:51:01.930Z,73.00
2018-09-08T12:53:29.384Z,73.90
2018-09-08T12:55:56.727Z,77.00
2018-09-08T12:58:24.137Z,74.30
2018-09-08T13:00:55.015Z,71.70
2018-09-08T13:03:22.403Z,74.40
2018-09-08T13:05:49.803Z,76.30
2018-09-08T13:08:17.187Z,73.10
2018-09-08T13:10:44.578Z,74.30
2018-09-08T13:13:11.986Z,74.60
2018-09-08T13:15:39.407Z,79.10
2018-09-08T13:18:06.856Z,74.50
2018-09-08T13:20:34.272Z,75.10
2018-09-08T13:23:01.682Z,75.80
2018-09-08T13:25:29.059Z,75.20
2018-09-08T13:27:56.475Z,78.40
2018-09-08T13:30:23.871Z,76.90
2018-09-08T13:32:51.300Z,78.70
2018-09-08T13:35:18.742Z,73.80
2018-09-08T13:37:46.182Z,75.40
2018-09-08T13:40:13.580Z,73.00
2018-09-08T13:42:41.064Z,80.30
2018-09-08T13:45:08.531Z,76.90
2018-09-08T13:47:35.926Z,75.20
2018-09-08T13:50:03.383Z,78.50
2018-09-08T13:52:30.760Z,68.10
2018-09-08T13:54:58.171Z,66.20
2018-09-08T13:57:25.602Z,65.50
2018-09-08T13:59:52.999Z,64.20
2018-09-08T14:02:23.817Z,58.20
2018-09-08T14:04:51.278Z,59.70
2018-09-08T14:07:18.683Z,61.50
2018-09-08T14:09:46.066Z,60.70
2018-09-08T14:12:13.490Z,59.50
2018-09-08T14:14:40.891Z,59.50
2018-09-08T14:17:08.319Z,59.20
2018-09-08T14:19:35.731Z,56.10
2018-09-08T14:22:03.146Z,57.60
2018-09-08T14:24:30.579Z,59.30
2018-09-08T14:26:57.991Z,63.90
2018-09-08T14:29:25.403Z,62.80
2018-09-08T14:31:53.807Z,64.30
2018-09-08T14:34:21.219Z,63.20
2018-09-08T14:36:48.749Z,63.00
2018-09-08T14:39:15.995Z,64.90
2018-09-08T14:41:43.414Z,62.10
2018-09-08T14:44:10.851Z,59.80
2018-09-08T14:46:38.246Z,59.80
2018-09-08T14:49:05.659Z,59.90
2018-09-08T14:51:33.058Z,63.50
2018-09-08T14:54:00.450Z,62.40
2018-09-08T14:56:27.900Z,62.50
2018-09-08T14:58:55.303Z,66.50
2018-09-08T15:01:22.731Z,67.30
2018-09-08T15:03:50.147Z,61.90
2018-09-08T15:06:17.539Z,61.60
2018-09-08T15:08:45.025Z,66.50
2018-09-08T15:11:12.451Z,69.60
2018-09-08T15:13:39.871Z,68.50
2018-09-08T15:16:07.312Z,68.70
2018-09-08T15:18:34.726Z,63.30
2018-09-08T15:21:02.103Z,65.50
2018-09-08T15:23:29.527Z,65.90
2018-09-08T15:25:56.955Z,66.80
2018-09-08T15:28:24.425Z,69.40
2018-09-08T15:30:51.825Z,64.60
2018-09-08T15:33:19.275Z,73.60
2018-09-08T15:35:46.669Z,73.30
2018-09-08T15:38:17.751Z,70.30
2018-09-08T15:40:45.155Z,72.40
2018-09-08T15:43:12.570Z,73.10
2018-09-08T15:45:40.959Z,62.60
2018-09-08T15:48:08.358Z,69.30
2018-09-08T15:50:35.751Z,71.80
2018-09-08T15:53:03.147Z,66.00
2018-09-08T15:55:30.531Z,71.00
2018-09-08T15:57:57.917Z,65.60
2018-09-08T16:00:25.328Z,63.00
2018-09-08T16:02:52.738Z,72.50
2018-09-08T16:05:20.122Z,69.00
2018-09-08T16:07:47.517Z,67.20
2018-09-08T16:10:14.923Z,76.30
2018-09-08T16:12:42.302Z,76.90
2018-09-08T16:15:09.780Z,75.60
2018-09-08T16:17:37.163Z,72.20
2018-09-08T16:20:04.551Z,74.50
2018-09-08T16:22:31.931Z,70.20
2018-09-08T16:24:59.319Z,74.20
2018-09-08T16:27:26.687Z,73.40
2018-09-08T16:29:54.079Z,75.00
2018-09-08T16:32:21.484Z,73.50
2018-09-08T16:34:48.869Z,73.50
2018-09-08T16:37:17.260Z,80.70
2018-09-08T16:39:44.650Z,82.10
2018-09-08T16:42:12.038Z,80.50
2018-09-08T16:44:39.426Z,82.20
2018-09-08T16:47:06.806Z,80.90
2018-09-08T16:49:34.208Z,85.50
2018-09-08T16:52:01.603Z,79.40
2018-09-08T16:54:28.987Z,84.20
2018-09-08T16:56:56.407Z,78.50
2018-09-08T16:59:29.867Z,81.60
2018-09-08T17:01:57.273Z,82.10
2018-09-08T17:04:24.673Z,80.60
2018-09-08T17:06:55.939Z,84.20
2018-09-08T17:09:23.255Z,85.60
2018-09-08T17:11:50.663Z,83.00
2018-09-08T17:14:18.043Z,86.20
2018-09-08T17:16:45.429Z,87.10
2018-09-08T17:19:12.818Z,84.00
2018-09-08T17:21:40.191Z,82.30
2018-09-08T17:24:07.586Z,85.40
2018-09-08T17:26:34.963Z,84.00
2018-09-08T17:29:05.446Z,83.00
2018-09-08T17:31:32.874Z,82.50
2018-09-08T17:34:00.289Z,85.50
2018-09-08T17:36:27.691Z,87.40
2018-09-08T17:38:55.103Z,88.10
2018-09-08T17:41:22.498Z,87.90
2018-09-08T17:43:50.201Z,88.70
2018-09-08T17:46:17.597Z,89.90
2018-09-08T17:48:48.143Z,91.00
2018-09-08T17:51:15.550Z,89.40
2018-09-08T17:53:42.943Z,87.60
2018-09-08T17:56:10.353Z,88.50
2018-09-08T17:58:37.787Z,89.40
2018-09-08T18:01:05.175Z,90.40
2018-09-08T18:06:45.606Z,90.10
2018-09-08T18:09:12.971Z,90.90
2018-09-08T18:11:40.359Z,91.20
2018-09-08T18:14:07.698Z,90.30
2018-09-08T18:16:35.069Z,90.80
2018-09-08T18:19:02.437Z,91.10
2018-09-08T18:21:29.798Z,92.10
2018-09-08T18:23:57.169Z,92.30
2018-09-08T18:26:24.522Z,91.60
2018-09-08T18:28:51.886Z,92.30
2018-09-08T18:31:19.246Z,91.20
2018-09-08T18:33:46.601Z,92.20
2018-09-08T18:36:13.993Z,91.90
2018-09-08T18:38:41.373Z,91.70
2018-09-08T18:41:08.769Z,93.40
2018-09-08T18:43:36.122Z,92.10
2018-09-08T18:46:03.478Z,93.00
2018-09-08T18:48:30.839Z,92.80
2018-09-08T18:50:58.182Z,92.50
2018-09-08T18:53:25.529Z,92.80
2018-09-08T18:55:52.926Z,92.40
2018-09-08T18:58:20.281Z,93.00
2018-09-08T19:00:47.642Z,93.00
2018-09-08T19:03:14.997Z,93.50
2018-09-08T19:05:45.668Z,93.80
2018-09-08T19:08:13.093Z,93.80
2018-09-08T19:10:40.441Z,94.10
2018-09-08T19:13:07.826Z,94.60
2018-09-08T19:15:35.205Z,94.40
2018-09-08T19:18:02.602Z,95.50
2018-09-08T19:20:37.503Z,95.10
2018-09-08T19:23:05.247Z,95.70
2018-09-08T19:25:32.631Z,95.80
2018-09-08T19:27:59.979Z,96.70
2018-09-08T19:30:27.357Z,97.00
2018-09-08T19:32:57.944Z,96.30
2018-09-08T19:35:31.010Z,98.50
2018-09-08T19:37:58.361Z,98.70
2018-09-08T19:40:31.470Z,98.30
2018-09-08T19:42:58.837Z,98.50
2018-09-08T19:45:26.244Z,98.30
2018-09-08T19:47:59.328Z,98.40
2018-09-08T19:50:26.674Z,99.00
2018-09-08T19:52:59.730Z,99.50
2018-09-08T19:55:27.106Z,99.00
2018-09-08T19:58:00.003Z,99.80
2018-09-08T20:00:27.370Z,99.90
2018-09-08T20:02:54.757Z,99.90
2018-09-08T20:05:22.133Z,99.90
2018-09-08T20:07:49.493Z,99.90
2018-09-08T20:10:16.833Z,99.90
2018-09-08T20:12:44.191Z,99.90
2018-09-08T20:15:14.637Z,99.90
2018-09-08T20:17:41.994Z,99.90
2018-09-08T20:20:09.371Z,99.90
2018-09-08T20:22:40.586Z,99.90
2018-09-08T20:25:07.963Z,99.90
2018-09-08T20:27:35.330Z,99.90
2018-09-08T20:30:05.502Z,99.90
2018-09-08T20:32:32.850Z,99.90
2018-09-08T20:35:00.293Z,99.90
2018-09-08T20:37:27.582Z,99.90
2018-09-08T20:39:54.962Z,99.90
2018-09-08T20:42:22.343Z,99.90
2018-09-08T20:44:49.723Z,99.90
2018-09-08T20:47:17.561Z,99.90
2018-09-08T20:49:44.999Z,99.90
2018-09-08T20:52:12.383Z,99.90
2018-09-08T20:54:39.757Z,99.90
2018-09-08T20:57:07.142Z,99.90
2018-09-08T20:59:34.526Z,99.90
2018-09-08T21:02:01.874Z,99.90
2018-09-08T21:04:29.233Z,99.90
2018-09-08T21:06:56.578Z,99.90
2018-09-08T21:09:23.938Z,99.90
2018-09-08T21:11:51.285Z,99.90
2018-09-08T21:14:18.645Z,99.90
2018-09-08T21:16:45.985Z,99.90
2018-09-08T21:19:13.353Z,99.90
2018-09-08T21:21:40.713Z,99.90
2018-09-08T21:24:08.057Z,99.90
2018-09-08T21:26:35.409Z,99.90
2018-09-08T21:29:02.770Z,99.90
2018-09-08T21:31:30.141Z,99.90
2018-09-08T21:33:57.480Z,99.90
2018-09-08T21:36:24.870Z,99.90
2018-09-08T21:38:52.217Z,99.90
2018-09-08T21:41:19.577Z,99.90
2018-09-08T21:43:48.070Z,99.90
2018-09-08T21:46:15.418Z,99.90
2018-09-08T21:48:42.782Z,99.90
2018-09-08T21:51:10.165Z,99.90
2018-09-08T21:53:37.525Z,99.90
2018-09-08T21:56:04.926Z,99.90
2018-09-08T21:58:33.361Z,99.90
2018-09-08T22:01:06.233Z,99.90
2018-09-08T22:03:33.997Z,99.90
2018-09-08T22:06:01.358Z,99.90
2018-09-08T22:08:33.301Z,99.90
2018-09-08T22:11:00.730Z,99.90
2018-09-08T22:13:28.071Z,99.90
2018-09-08T22:15:55.484Z,99.90
2018-09-08T22:18:22.805Z,99.90
2018-09-08T22:20:50.138Z,99.90
2018-09-08T22:23:17.513Z,99.90
2018-09-08T22:25:44.870Z,99.90
2018-09-08T22:28:12.258Z,99.90
2018-09-08T22:30:39.647Z,99.90
2018-09-08T22:33:07.018Z,99.90
2018-09-08T22:35:34.383Z,99.90
2018-09-08T22:38:01.734Z,99.90
2018-09-08T22:40:29.094Z,99.90
2018-09-08T22:42:56.477Z,99.90
2018-09-08T22:45:23.823Z,99.90
2018-09-08T22:47:51.191Z,99.90
2018-09-08T22:50:18.553Z,99.90
2018-09-08T22:52:45.938Z,99.90
2018-09-08T22:55:13.314Z,99.90
2018-09-08T22:57:40.674Z,99.90
2018-09-08T23:00:08.073Z,99.90
2018-09-08T23:02:35.425Z,99.90
2018-09-08T23:05:02.845Z,99.90
2018-09-08T23:07:30.197Z,99.90
2018-09-08T23:09:57.542Z,99.90
2018-09-08T23:12:25.000Z,99.90
2018-09-08T23:14:52.320Z,99.90
2018-09-08T23:17:19.673Z,99.90
2018-09-08T23:19:47.018Z,99.90
2018-09-08T23:22:14.369Z,99.90
2018-09-08T23:24:41.726Z,99.90
2018-09-08T23:27:09.066Z,99.90
2018-09-08T23:29:36.434Z,99.90
2018-09-08T23:32:03.785Z,99.90
2018-09-08T23:34:31.128Z,99.90
2018-09-08T23:36:58.489Z,99.90
2018-09-08T23:39:25.857Z,99.90
2018-09-08T23:41:53.201Z,99.90
2018-09-08T23:44:20.556Z,99.90
2018-09-08T23:46:47.925Z,99.90
2018-09-08T23:49:15.281Z,99.90
2018-09-08T23:51:46.089Z,99.90
2018-09-08T23:54:13.494Z,99.90
2018-09-08T23:56:40.849Z,99.90
2018-09-08T23:59:08.245Z,99.90
